sensor_id;sensor_type;location;lat;lon;timestamp;P1;durP1;ratioP1;P2;durP2;ratioP2
70532;SDS011;58088;51.186;17.130;2023-07-02T00:02:14;14.60;;;8.30;;
70532;SDS011;58088;51.186;17.130;2023-07-02T00:04:41;13.20;;;8.20;;
70532;SDS011;58088;51.186;17.130;2023-07-02T00:07:08;15.40;;;8.20;;
70532;SDS011;58088;51.186;17.130;2023-07-02T00:09:35;12.40;;;8.10;;
70532;SDS011;58088;51.186;17.130;2023-07-02T00:12:05;15.20;;;8.00;;
70532;SDS011;58088;51.186;17.130;2023-07-02T00:14:31;13.30;;;8.50;;
70532;SDS011;58088;51.186;17.130;2023-07-02T00:16:58;14.20;;;8.30;;
70532;SDS011;58088;51.186;17.130;2023-07-02T00:19:25;14.20;;;8.40;;
70532;SDS011;58088;51.186;17.130;2023-07-02T00:21:52;17.80;;;8.40;;
70532;SDS011;58088;51.186;17.130;2023-07-02T00:24:19;14.10;;;7.90;;
70532;SDS011;58088;51.186;17.130;2023-07-02T00:26:45;15.10;;;8.20;;
70532;SDS011;58088;51.186;17.130;2023-07-02T00:29:12;14.00;;;7.80;;
70532;SDS011;58088;51.186;17.130;2023-07-02T00:31:39;13.10;;;7.00;;
70532;SDS011;58088;51.186;17.130;2023-07-02T00:34:05;15.40;;;7.80;;
70532;SDS011;58088;51.186;17.130;2023-07-02T00:36:31;15.60;;;8.60;;
70532;SDS011;58088;51.186;17.130;2023-07-02T00:38:58;15.20;;;8.20;;
70532;SDS011;58088;51.186;17.130;2023-07-02T00:41:25;15.10;;;8.30;;
70532;SDS011;58088;51.186;17.130;2023-07-02T00:43:51;16.50;;;8.60;;
70532;SDS011;58088;51.186;17.130;2023-07-02T00:46:22;13.40;;;7.90;;
70532;SDS011;58088;51.186;17.130;2023-07-02T00:48:53;12.30;;;7.40;;
70532;SDS011;58088;51.186;17.130;2023-07-02T00:51:26;12.10;;;6.90;;
70532;SDS011;58088;51.186;17.130;2023-07-02T00:53:57;14.70;;;7.50;;
70532;SDS011;58088;51.186;17.130;2023-07-02T00:56:26;13.00;;;7.00;;
70532;SDS011;58088;51.186;17.130;2023-07-02T00:58:55;12.50;;;6.40;;
70532;SDS011;58088;51.186;17.130;2023-07-02T01:01:26;11.30;;;6.10;;
70532;SDS011;58088;51.186;17.130;2023-07-02T01:04:04;10.30;;;6.10;;
70532;SDS011;58088;51.186;17.130;2023-07-02T01:06:35;12.10;;;5.90;;
70532;SDS011;58088;51.186;17.130;2023-07-02T01:09:07;11.50;;;5.70;;
70532;SDS011;58088;51.186;17.130;2023-07-02T01:11:44;10.40;;;5.50;;
70532;SDS011;58088;51.186;17.130;2023-07-02T01:17:03;8.70;;;4.70;;
70532;SDS011;58088;51.186;17.130;2023-07-02T01:19:44;8.60;;;4.30;;
70532;SDS011;58088;51.186;17.130;2023-07-02T01:22:23;7.10;;;3.70;;
70532;SDS011;58088;51.186;17.130;2023-07-02T01:24:51;7.20;;;3.60;;
70532;SDS011;58088;51.186;17.130;2023-07-02T01:27:19;5.80;;;2.90;;
70532;SDS011;58088;51.186;17.130;2023-07-02T01:29:50;7.10;;;3.00;;
70532;SDS011;58088;51.186;17.130;2023-07-02T01:32:18;5.50;;;2.50;;
70532;SDS011;58088;51.186;17.130;2023-07-02T01:34:44;7.30;;;2.90;;
70532;SDS011;58088;51.186;17.130;2023-07-02T01:37:15;6.60;;;2.50;;
70532;SDS011;58088;51.186;17.130;2023-07-02T01:39:42;6.80;;;2.10;;
70532;SDS011;58088;51.186;17.130;2023-07-02T01:42:14;5.70;;;2.10;;
70532;SDS011;58088;51.186;17.130;2023-07-02T01:44:44;3.70;;;1.90;;
70532;SDS011;58088;51.186;17.130;2023-07-02T01:47:12;4.10;;;2.10;;
70532;SDS011;58088;51.186;17.130;2023-07-02T01:49:39;3.30;;;1.80;;
70532;SDS011;58088;51.186;17.130;2023-07-02T01:52:06;6.00;;;2.00;;
70532;SDS011;58088;51.186;17.130;2023-07-02T01:54:34;6.00;;;2.10;;
70532;SDS011;58088;51.186;17.130;2023-07-02T01:57:01;5.50;;;2.00;;
70532;SDS011;58088;51.186;17.130;2023-07-02T01:59:28;4.40;;;2.00;;
70532;SDS011;58088;51.186;17.130;2023-07-02T02:02:03;6.10;;;2.20;;
70532;SDS011;58088;51.186;17.130;2023-07-02T02:04:48;4.80;;;2.10;;
70532;SDS011;58088;51.186;17.130;2023-07-02T02:07:14;2.90;;;1.50;;
70532;SDS011;58088;51.186;17.130;2023-07-02T02:09:40;5.90;;;1.90;;
70532;SDS011;58088;51.186;17.130;2023-07-02T02:12:06;5.10;;;1.80;;
70532;SDS011;58088;51.186;17.130;2023-07-02T02:14:33;4.20;;;1.70;;
70532;SDS011;58088;51.186;17.130;2023-07-02T02:16:59;3.50;;;1.80;;
70532;SDS011;58088;51.186;17.130;2023-07-02T02:19:25;3.00;;;1.60;;
70532;SDS011;58088;51.186;17.130;2023-07-02T02:21:52;3.50;;;1.40;;
70532;SDS011;58088;51.186;17.130;2023-07-02T02:24:18;4.80;;;1.90;;
70532;SDS011;58088;51.186;17.130;2023-07-02T02:26:44;3.60;;;1.60;;
70532;SDS011;58088;51.186;17.130;2023-07-02T02:29:10;4.10;;;1.60;;
70532;SDS011;58088;51.186;17.130;2023-07-02T02:31:36;4.10;;;1.60;;
70532;SDS011;58088;51.186;17.130;2023-07-02T02:34:03;3.30;;;1.50;;
70532;SDS011;58088;51.186;17.130;2023-07-02T02:36:29;3.40;;;1.70;;
70532;SDS011;58088;51.186;17.130;2023-07-02T02:38:56;3.80;;;1.90;;
70532;SDS011;58088;51.186;17.130;2023-07-02T02:41:22;4.10;;;1.90;;
70532;SDS011;58088;51.186;17.130;2023-07-02T02:43:50;4.10;;;1.70;;
70532;SDS011;58088;51.186;17.130;2023-07-02T02:46:21;2.90;;;1.40;;
70532;SDS011;58088;51.186;17.130;2023-07-02T02:48:48;4.70;;;1.90;;
70532;SDS011;58088;51.186;17.130;2023-07-02T02:51:15;3.40;;;1.50;;
70532;SDS011;58088;51.186;17.130;2023-07-02T02:53:41;3.00;;;1.60;;
70532;SDS011;58088;51.186;17.130;2023-07-02T02:56:07;4.70;;;2.00;;
70532;SDS011;58088;51.186;17.130;2023-07-02T02:58:33;4.30;;;1.50;;
70532;SDS011;58088;51.186;17.130;2023-07-02T03:01:00;4.60;;;1.60;;
70532;SDS011;58088;51.186;17.130;2023-07-02T03:03:26;3.40;;;1.60;;
70532;SDS011;58088;51.186;17.130;2023-07-02T03:05:52;3.90;;;1.50;;
70532;SDS011;58088;51.186;17.130;2023-07-02T03:08:19;3.90;;;1.80;;
70532;SDS011;58088;51.186;17.130;2023-07-02T03:10:45;5.70;;;1.80;;
70532;SDS011;58088;51.186;17.130;2023-07-02T03:13:11;4.20;;;2.00;;
70532;SDS011;58088;51.186;17.130;2023-07-02T03:15:38;5.90;;;1.60;;
70532;SDS011;58088;51.186;17.130;2023-07-02T03:18:04;3.70;;;1.60;;
70532;SDS011;58088;51.186;17.130;2023-07-02T03:20:30;3.80;;;1.70;;
70532;SDS011;58088;51.186;17.130;2023-07-02T03:22:57;4.10;;;1.80;;
70532;SDS011;58088;51.186;17.130;2023-07-02T03:25:23;3.20;;;1.60;;
70532;SDS011;58088;51.186;17.130;2023-07-02T03:27:49;3.80;;;1.30;;
70532;SDS011;58088;51.186;17.130;2023-07-02T03:30:16;3.40;;;1.40;;
70532;SDS011;58088;51.186;17.130;2023-07-02T03:32:43;3.70;;;1.30;;
70532;SDS011;58088;51.186;17.130;2023-07-02T03:35:09;3.40;;;1.20;;
70532;SDS011;58088;51.186;17.130;2023-07-02T03:37:35;2.60;;;1.30;;
70532;SDS011;58088;51.186;17.130;2023-07-02T03:40:01;4.70;;;1.40;;
70532;SDS011;58088;51.186;17.130;2023-07-02T03:42:28;2.00;;;1.00;;
70532;SDS011;58088;51.186;17.130;2023-07-02T03:44:54;3.00;;;1.10;;
70532;SDS011;58088;51.186;17.130;2023-07-02T03:47:21;2.20;;;1.00;;
70532;SDS011;58088;51.186;17.130;2023-07-02T03:49:48;3.50;;;1.00;;
70532;SDS011;58088;51.186;17.130;2023-07-02T03:52:14;3.40;;;0.90;;
70532;SDS011;58088;51.186;17.130;2023-07-02T03:54:40;3.10;;;1.00;;
70532;SDS011;58088;51.186;17.130;2023-07-02T03:57:06;4.30;;;1.10;;
70532;SDS011;58088;51.186;17.130;2023-07-02T03:59:34;4.90;;;1.20;;
70532;SDS011;58088;51.186;17.130;2023-07-02T04:02:00;3.20;;;1.10;;
70532;SDS011;58088;51.186;17.130;2023-07-02T04:04:26;3.50;;;1.00;;
70532;SDS011;58088;51.186;17.130;2023-07-02T04:06:53;2.70;;;1.30;;
70532;SDS011;58088;51.186;17.130;2023-07-02T04:09:19;2.00;;;0.90;;
70532;SDS011;58088;51.186;17.130;2023-07-02T04:11:45;2.40;;;1.00;;
70532;SDS011;58088;51.186;17.130;2023-07-02T04:14:12;3.10;;;1.20;;
70532;SDS011;58088;51.186;17.130;2023-07-02T04:16:38;2.30;;;1.10;;
70532;SDS011;58088;51.186;17.130;2023-07-02T04:19:04;2.70;;;1.20;;
70532;SDS011;58088;51.186;17.130;2023-07-02T04:21:30;3.40;;;1.00;;
70532;SDS011;58088;51.186;17.130;2023-07-02T04:23:56;2.70;;;1.00;;
70532;SDS011;58088;51.186;17.130;2023-07-02T04:26:22;2.50;;;1.10;;
70532;SDS011;58088;51.186;17.130;2023-07-02T04:28:53;3.50;;;1.10;;
70532;SDS011;58088;51.186;17.130;2023-07-02T04:31:21;2.20;;;1.10;;
70532;SDS011;58088;51.186;17.130;2023-07-02T04:33:47;2.20;;;1.20;;
70532;SDS011;58088;51.186;17.130;2023-07-02T04:36:13;2.80;;;1.30;;
70532;SDS011;58088;51.186;17.130;2023-07-02T04:38:40;2.40;;;1.40;;
70532;SDS011;58088;51.186;17.130;2023-07-02T04:41:06;2.60;;;1.20;;
70532;SDS011;58088;51.186;17.130;2023-07-02T04:43:35;3.40;;;1.60;;
70532;SDS011;58088;51.186;17.130;2023-07-02T04:46:02;3.50;;;1.70;;
70532;SDS011;58088;51.186;17.130;2023-07-02T04:48:29;4.40;;;1.40;;
70532;SDS011;58088;51.186;17.130;2023-07-02T04:50:55;2.30;;;1.20;;
70532;SDS011;58088;51.186;17.130;2023-07-02T04:53:21;3.00;;;1.50;;
70532;SDS011;58088;51.186;17.130;2023-07-02T04:55:47;3.00;;;1.30;;
70532;SDS011;58088;51.186;17.130;2023-07-02T04:58:13;3.90;;;1.60;;
70532;SDS011;58088;51.186;17.130;2023-07-02T05:00:39;4.30;;;1.50;;
70532;SDS011;58088;51.186;17.130;2023-07-02T05:03:06;3.90;;;1.80;;
70532;SDS011;58088;51.186;17.130;2023-07-02T05:05:32;3.90;;;1.30;;
70532;SDS011;58088;51.186;17.130;2023-07-02T05:07:58;4.20;;;1.70;;
70532;SDS011;58088;51.186;17.130;2023-07-02T05:10:24;3.90;;;1.50;;
70532;SDS011;58088;51.186;17.130;2023-07-02T05:12:51;3.50;;;1.70;;
70532;SDS011;58088;51.186;17.130;2023-07-02T05:15:17;5.40;;;1.80;;
70532;SDS011;58088;51.186;17.130;2023-07-02T05:17:44;4.50;;;1.70;;
70532;SDS011;58088;51.186;17.130;2023-07-02T05:20:10;3.70;;;1.80;;
70532;SDS011;58088;51.186;17.130;2023-07-02T05:22:36;3.50;;;1.80;;
70532;SDS011;58088;51.186;17.130;2023-07-02T05:25:04;5.00;;;1.90;;
70532;SDS011;58088;51.186;17.130;2023-07-02T05:27:30;3.40;;;1.80;;
70532;SDS011;58088;51.186;17.130;2023-07-02T05:29:56;5.30;;;1.90;;
70532;SDS011;58088;51.186;17.130;2023-07-02T05:32:23;5.80;;;1.90;;
70532;SDS011;58088;51.186;17.130;2023-07-02T05:34:49;4.10;;;1.90;;
70532;SDS011;58088;51.186;17.130;2023-07-02T05:37:15;4.00;;;2.00;;
70532;SDS011;58088;51.186;17.130;2023-07-02T05:39:42;3.80;;;1.90;;
70532;SDS011;58088;51.186;17.130;2023-07-02T05:42:08;10.00;;;2.70;;
70532;SDS011;58088;51.186;17.130;2023-07-02T05:44:34;5.70;;;2.10;;
70532;SDS011;58088;51.186;17.130;2023-07-02T05:47:00;3.30;;;1.80;;
70532;SDS011;58088;51.186;17.130;2023-07-02T05:49:26;3.90;;;1.80;;
70532;SDS011;58088;51.186;17.130;2023-07-02T05:51:53;5.40;;;2.10;;
70532;SDS011;58088;51.186;17.130;2023-07-02T05:54:19;4.60;;;1.80;;
70532;SDS011;58088;51.186;17.130;2023-07-02T05:56:45;4.70;;;2.10;;
70532;SDS011;58088;51.186;17.130;2023-07-02T05:59:11;4.90;;;2.00;;
70532;SDS011;58088;51.186;17.130;2023-07-02T06:01:40;23.70;;;2.90;;
70532;SDS011;58088;51.186;17.130;2023-07-02T06:04:06;6.80;;;2.30;;
70532;SDS011;58088;51.186;17.130;2023-07-02T06:06:33;3.70;;;2.10;;
70532;SDS011;58088;51.186;17.130;2023-07-02T06:08:59;4.40;;;1.90;;
70532;SDS011;58088;51.186;17.130;2023-07-02T06:11:25;3.80;;;1.90;;
70532;SDS011;58088;51.186;17.130;2023-07-02T06:13:51;5.00;;;1.80;;
70532;SDS011;58088;51.186;17.130;2023-07-02T06:16:17;3.80;;;2.00;;
70532;SDS011;58088;51.186;17.130;2023-07-02T06:18:43;4.20;;;1.90;;
70532;SDS011;58088;51.186;17.130;2023-07-02T06:21:10;3.20;;;1.70;;
70532;SDS011;58088;51.186;17.130;2023-07-02T06:23:41;4.50;;;1.80;;
70532;SDS011;58088;51.186;17.130;2023-07-02T06:26:10;4.60;;;2.00;;
70532;SDS011;58088;51.186;17.130;2023-07-02T06:28:38;3.90;;;2.00;;
70532;SDS011;58088;51.186;17.130;2023-07-02T06:31:04;10.50;;;2.30;;
70532;SDS011;58088;51.186;17.130;2023-07-02T06:33:30;3.70;;;1.80;;
70532;SDS011;58088;51.186;17.130;2023-07-02T06:35:57;4.00;;;1.90;;
70532;SDS011;58088;51.186;17.130;2023-07-02T06:38:23;3.70;;;2.20;;
70532;SDS011;58088;51.186;17.130;2023-07-02T06:40:49;11.00;;;2.60;;
70532;SDS011;58088;51.186;17.130;2023-07-02T06:43:15;3.10;;;1.50;;
70532;SDS011;58088;51.186;17.130;2023-07-02T06:45:41;3.20;;;1.90;;
70532;SDS011;58088;51.186;17.130;2023-07-02T06:48:07;3.90;;;2.00;;
70532;SDS011;58088;51.186;17.130;2023-07-02T06:50:34;3.80;;;2.10;;
70532;SDS011;58088;51.186;17.130;2023-07-02T06:53:00;3.90;;;2.00;;
70532;SDS011;58088;51.186;17.130;2023-07-02T06:55:26;3.60;;;1.90;;
70532;SDS011;58088;51.186;17.130;2023-07-02T06:57:52;3.40;;;2.00;;
70532;SDS011;58088;51.186;17.130;2023-07-02T07:00:19;3.60;;;1.90;;
70532;SDS011;58088;51.186;17.130;2023-07-02T07:02:45;3.20;;;1.90;;
70532;SDS011;58088;51.186;17.130;2023-07-02T07:05:11;3.20;;;1.90;;
70532;SDS011;58088;51.186;17.130;2023-07-02T07:07:38;3.90;;;1.80;;
70532;SDS011;58088;51.186;17.130;2023-07-02T07:10:05;3.60;;;1.80;;
70532;SDS011;58088;51.186;17.130;2023-07-02T07:12:35;3.70;;;2.00;;
70532;SDS011;58088;51.186;17.130;2023-07-02T07:15:02;3.40;;;1.70;;
70532;SDS011;58088;51.186;17.130;2023-07-02T07:17:28;3.80;;;1.90;;
70532;SDS011;58088;51.186;17.130;2023-07-02T07:19:54;3.40;;;1.90;;
70532;SDS011;58088;51.186;17.130;2023-07-02T07:22:20;3.60;;;1.80;;
70532;SDS011;58088;51.186;17.130;2023-07-02T07:24:47;3.70;;;1.90;;
70532;SDS011;58088;51.186;17.130;2023-07-02T07:27:13;2.70;;;1.60;;
70532;SDS011;58088;51.186;17.130;2023-07-02T07:29:39;3.50;;;1.60;;
70532;SDS011;58088;51.186;17.130;2023-07-02T07:32:06;2.90;;;1.70;;
70532;SDS011;58088;51.186;17.130;2023-07-02T07:34:33;2.90;;;1.80;;
70532;SDS011;58088;51.186;17.130;2023-07-02T07:36:59;2.90;;;1.70;;
70532;SDS011;58088;51.186;17.130;2023-07-02T07:39:25;4.50;;;1.90;;
70532;SDS011;58088;51.186;17.130;2023-07-02T07:41:51;3.20;;;1.60;;
70532;SDS011;58088;51.186;17.130;2023-07-02T07:44:18;5.10;;;2.10;;
70532;SDS011;58088;51.186;17.130;2023-07-02T07:46:44;4.60;;;2.00;;
70532;SDS011;58088;51.186;17.130;2023-07-02T07:49:12;3.30;;;1.90;;
70532;SDS011;58088;51.186;17.130;2023-07-02T07:51:39;4.80;;;2.20;;
70532;SDS011;58088;51.186;17.130;2023-07-02T07:54:05;2.80;;;1.90;;
70532;SDS011;58088;51.186;17.130;2023-07-02T07:56:31;4.20;;;2.20;;
70532;SDS011;58088;51.186;17.130;2023-07-02T07:58:57;3.30;;;2.00;;
70532;SDS011;58088;51.186;17.130;2023-07-02T08:01:26;3.70;;;2.00;;
70532;SDS011;58088;51.186;17.130;2023-07-02T08:03:53;4.10;;;2.30;;
70532;SDS011;58088;51.186;17.130;2023-07-02T08:06:19;3.80;;;2.40;;
70532;SDS011;58088;51.186;17.130;2023-07-02T08:08:46;5.30;;;2.50;;
70532;SDS011;58088;51.186;17.130;2023-07-02T08:11:12;3.80;;;2.40;;
70532;SDS011;58088;51.186;17.130;2023-07-02T08:13:39;4.90;;;2.60;;
70532;SDS011;58088;51.186;17.130;2023-07-02T08:16:05;3.80;;;2.20;;
70532;SDS011;58088;51.186;17.130;2023-07-02T08:18:33;4.00;;;2.20;;
70532;SDS011;58088;51.186;17.130;2023-07-02T08:20:59;52.30;;;5.50;;
70532;SDS011;58088;51.186;17.130;2023-07-02T08:23:26;4.20;;;2.50;;
70532;SDS011;58088;51.186;17.130;2023-07-02T08:25:52;4.80;;;2.20;;
70532;SDS011;58088;51.186;17.130;2023-07-02T08:28:18;3.40;;;2.10;;
70532;SDS011;58088;51.186;17.130;2023-07-02T08:30:45;4.30;;;2.50;;
70532;SDS011;58088;51.186;17.130;2023-07-02T08:33:11;4.40;;;2.40;;
70532;SDS011;58088;51.186;17.130;2023-07-02T08:35:37;4.60;;;2.30;;
70532;SDS011;58088;51.186;17.130;2023-07-02T08:38:03;3.80;;;2.10;;
70532;SDS011;58088;51.186;17.130;2023-07-02T08:40:29;4.60;;;2.70;;
70532;SDS011;58088;51.186;17.130;2023-07-02T08:42:55;4.20;;;2.50;;
70532;SDS011;58088;51.186;17.130;2023-07-02T08:45:23;4.40;;;2.50;;
70532;SDS011;58088;51.186;17.130;2023-07-02T08:47:50;4.60;;;2.70;;
70532;SDS011;58088;51.186;17.130;2023-07-02T08:50:19;7.00;;;2.80;;
70532;SDS011;58088;51.186;17.130;2023-07-02T08:52:45;3.90;;;2.50;;
70532;SDS011;58088;51.186;17.130;2023-07-02T08:55:11;4.10;;;2.60;;
70532;SDS011;58088;51.186;17.130;2023-07-02T08:57:38;4.60;;;2.80;;
70532;SDS011;58088;51.186;17.130;2023-07-02T09:00:11;6.70;;;2.50;;
70532;SDS011;58088;51.186;17.130;2023-07-02T09:02:38;6.60;;;2.50;;
70532;SDS011;58088;51.186;17.130;2023-07-02T09:05:04;5.00;;;2.60;;
70532;SDS011;58088;51.186;17.130;2023-07-02T09:07:31;5.10;;;2.60;;
70532;SDS011;58088;51.186;17.130;2023-07-02T09:09:57;3.90;;;2.00;;
70532;SDS011;58088;51.186;17.130;2023-07-02T09:12:33;4.40;;;2.50;;
70532;SDS011;58088;51.186;17.130;2023-07-02T09:15:02;4.00;;;2.20;;
70532;SDS011;58088;51.186;17.130;2023-07-02T09:17:33;4.50;;;2.70;;
70532;SDS011;58088;51.186;17.130;2023-07-02T09:20:03;4.90;;;2.80;;
70532;SDS011;58088;51.186;17.130;2023-07-02T09:22:36;5.60;;;3.40;;
70532;SDS011;58088;51.186;17.130;2023-07-02T09:25:03;3.90;;;2.40;;
70532;SDS011;58088;51.186;17.130;2023-07-02T09:27:34;4.20;;;2.60;;
70532;SDS011;58088;51.186;17.130;2023-07-02T09:30:13;5.20;;;2.90;;
70532;SDS011;58088;51.186;17.130;2023-07-02T09:32:45;3.90;;;2.40;;
70532;SDS011;58088;51.186;17.130;2023-07-02T09:35:12;3.50;;;2.40;;
70532;SDS011;58088;51.186;17.130;2023-07-02T09:37:38;4.20;;;2.70;;
70532;SDS011;58088;51.186;17.130;2023-07-02T09:40:07;5.00;;;2.80;;
70532;SDS011;58088;51.186;17.130;2023-07-02T09:42:35;5.70;;;2.40;;
70532;SDS011;58088;51.186;17.130;2023-07-02T09:45:08;4.20;;;2.50;;
70532;SDS011;58088;51.186;17.130;2023-07-02T09:47:42;4.80;;;2.60;;
70532;SDS011;58088;51.186;17.130;2023-07-02T09:50:11;3.40;;;2.30;;
70532;SDS011;58088;51.186;17.130;2023-07-02T09:52:40;4.30;;;2.50;;
70532;SDS011;58088;51.186;17.130;2023-07-02T09:55:08;5.10;;;2.70;;
70532;SDS011;58088;51.186;17.130;2023-07-02T09:57:35;4.60;;;2.10;;
70532;SDS011;58088;51.186;17.130;2023-07-02T10:00:02;3.60;;;2.20;;
70532;SDS011;58088;51.186;17.130;2023-07-02T10:02:31;5.60;;;2.60;;
70532;SDS011;58088;51.186;17.130;2023-07-02T10:04:58;5.70;;;2.50;;
70532;SDS011;58088;51.186;17.130;2023-07-02T10:07:28;4.90;;;2.50;;
70532;SDS011;58088;51.186;17.130;2023-07-02T10:09:56;4.70;;;2.70;;
70532;SDS011;58088;51.186;17.130;2023-07-02T10:12:27;4.80;;;2.80;;
70532;SDS011;58088;51.186;17.130;2023-07-02T10:14:56;5.30;;;2.80;;
70532;SDS011;58088;51.186;17.130;2023-07-02T10:17:25;3.90;;;2.40;;
70532;SDS011;58088;51.186;17.130;2023-07-02T10:20:04;4.70;;;2.90;;
70532;SDS011;58088;51.186;17.130;2023-07-02T10:22:47;4.80;;;2.70;;
70532;SDS011;58088;51.186;17.130;2023-07-02T10:25:26;3.50;;;2.20;;
70532;SDS011;58088;51.186;17.130;2023-07-02T10:27:57;3.80;;;2.10;;
70532;SDS011;58088;51.186;17.130;2023-07-02T10:30:42;4.50;;;2.20;;
70532;SDS011;58088;51.186;17.130;2023-07-02T10:33:18;4.00;;;2.50;;
70532;SDS011;58088;51.186;17.130;2023-07-02T10:35:47;4.20;;;2.80;;
70532;SDS011;58088;51.186;17.130;2023-07-02T10:38:17;4.40;;;2.40;;
70532;SDS011;58088;51.186;17.130;2023-07-02T10:40:46;4.50;;;2.10;;
70532;SDS011;58088;51.186;17.130;2023-07-02T10:45:56;2.80;;;1.70;;
70532;SDS011;58088;51.186;17.130;2023-07-02T10:48:25;4.30;;;2.30;;
70532;SDS011;58088;51.186;17.130;2023-07-02T10:50:51;4.00;;;2.30;;
70532;SDS011;58088;51.186;17.130;2023-07-02T10:53:18;4.10;;;2.10;;
70532;SDS011;58088;51.186;17.130;2023-07-02T10:55:52;3.20;;;2.10;;
70532;SDS011;58088;51.186;17.130;2023-07-02T10:58:21;4.10;;;2.10;;
70532;SDS011;58088;51.186;17.130;2023-07-02T11:00:48;3.60;;;2.20;;
70532;SDS011;58088;51.186;17.130;2023-07-02T11:03:23;3.20;;;1.80;;
70532;SDS011;58088;51.186;17.130;2023-07-02T11:05:51;3.50;;;1.90;;
70532;SDS011;58088;51.186;17.130;2023-07-02T11:08:18;3.50;;;2.00;;
70532;SDS011;58088;51.186;17.130;2023-07-02T11:10:50;4.20;;;2.40;;
70532;SDS011;58088;51.186;17.130;2023-07-02T11:13:18;3.40;;;2.30;;
70532;SDS011;58088;51.186;17.130;2023-07-02T11:15:46;3.50;;;1.90;;
70532;SDS011;58088;51.186;17.130;2023-07-02T11:18:13;4.40;;;2.00;;
70532;SDS011;58088;51.186;17.130;2023-07-02T11:20:43;3.40;;;2.10;;
70532;SDS011;58088;51.186;17.130;2023-07-02T11:23:24;3.90;;;2.30;;
70532;SDS011;58088;51.186;17.130;2023-07-02T11:25:58;3.80;;;1.90;;
70532;SDS011;58088;51.186;17.130;2023-07-02T11:28:27;4.10;;;2.10;;
70532;SDS011;58088;51.186;17.130;2023-07-02T11:30:55;5.10;;;1.90;;
70532;SDS011;58088;51.186;17.130;2023-07-02T11:33:40;5.00;;;2.20;;
70532;SDS011;58088;51.186;17.130;2023-07-02T11:36:19;6.10;;;2.30;;
70532;SDS011;58088;51.186;17.130;2023-07-02T11:38:51;3.60;;;2.00;;
70532;SDS011;58088;51.186;17.130;2023-07-02T11:41:19;3.40;;;1.70;;
70532;SDS011;58088;51.186;17.130;2023-07-02T11:43:46;3.60;;;1.90;;
70532;SDS011;58088;51.186;17.130;2023-07-02T11:46:13;4.30;;;2.10;;
70532;SDS011;58088;51.186;17.130;2023-07-02T11:48:40;3.70;;;2.30;;
70532;SDS011;58088;51.186;17.130;2023-07-02T11:51:06;4.60;;;2.10;;
70532;SDS011;58088;51.186;17.130;2023-07-02T11:53:32;4.10;;;2.40;;
70532;SDS011;58088;51.186;17.130;2023-07-02T11:55:58;3.00;;;1.90;;
70532;SDS011;58088;51.186;17.130;2023-07-02T11:58:24;4.40;;;2.40;;
70532;SDS011;58088;51.186;17.130;2023-07-02T12:00:51;3.60;;;2.10;;
70532;SDS011;58088;51.186;17.130;2023-07-02T12:03:17;3.70;;;2.20;;
70532;SDS011;58088;51.186;17.130;2023-07-02T12:05:43;2.60;;;1.40;;
70532;SDS011;58088;51.186;17.130;2023-07-02T12:08:09;4.50;;;2.00;;
70532;SDS011;58088;51.186;17.130;2023-07-02T12:10:35;3.30;;;2.00;;
70532;SDS011;58088;51.186;17.130;2023-07-02T12:13:01;3.60;;;2.00;;
70532;SDS011;58088;51.186;17.130;2023-07-02T12:15:27;3.20;;;2.10;;
70532;SDS011;58088;51.186;17.130;2023-07-02T12:17:54;3.40;;;2.20;;
70532;SDS011;58088;51.186;17.130;2023-07-02T12:20:20;3.30;;;2.10;;
70532;SDS011;58088;51.186;17.130;2023-07-02T12:22:47;3.60;;;2.30;;
70532;SDS011;58088;51.186;17.130;2023-07-02T12:25:13;3.30;;;2.00;;
70532;SDS011;58088;51.186;17.130;2023-07-02T12:27:40;3.30;;;1.80;;
70532;SDS011;58088;51.186;17.130;2023-07-02T12:30:07;4.40;;;2.30;;
70532;SDS011;58088;51.186;17.130;2023-07-02T12:32:34;4.30;;;2.20;;
70532;SDS011;58088;51.186;17.130;2023-07-02T12:35:00;3.20;;;2.00;;
70532;SDS011;58088;51.186;17.130;2023-07-02T12:37:27;2.60;;;1.80;;
70532;SDS011;58088;51.186;17.130;2023-07-02T12:39:53;4.10;;;2.30;;
70532;SDS011;58088;51.186;17.130;2023-07-02T12:42:19;12.80;;;2.50;;
70532;SDS011;58088;51.186;17.130;2023-07-02T12:44:46;6.20;;;2.20;;
70532;SDS011;58088;51.186;17.130;2023-07-02T12:47:12;3.80;;;2.00;;
70532;SDS011;58088;51.186;17.130;2023-07-02T12:49:38;3.40;;;1.80;;
70532;SDS011;58088;51.186;17.130;2023-07-02T12:52:04;3.00;;;2.10;;
70532;SDS011;58088;51.186;17.130;2023-07-02T12:54:30;5.00;;;2.30;;
70532;SDS011;58088;51.186;17.130;2023-07-02T12:56:56;3.00;;;1.80;;
70532;SDS011;58088;51.186;17.130;2023-07-02T12:59:23;6.40;;;2.20;;
70532;SDS011;58088;51.186;17.130;2023-07-02T13:01:49;4.60;;;2.00;;
70532;SDS011;58088;51.186;17.130;2023-07-02T13:04:15;3.80;;;2.20;;
70532;SDS011;58088;51.186;17.130;2023-07-02T13:06:43;5.20;;;2.40;;
70532;SDS011;58088;51.186;17.130;2023-07-02T13:09:11;11.90;;;2.50;;
70532;SDS011;58088;51.186;17.130;2023-07-02T13:11:38;5.60;;;2.20;;
70532;SDS011;58088;51.186;17.130;2023-07-02T13:14:05;4.70;;;2.30;;
70532;SDS011;58088;51.186;17.130;2023-07-02T13:16:32;4.20;;;2.30;;
70532;SDS011;58088;51.186;17.130;2023-07-02T13:18:59;4.40;;;2.10;;
70532;SDS011;58088;51.186;17.130;2023-07-02T13:21:28;4.60;;;2.50;;
70532;SDS011;58088;51.186;17.130;2023-07-02T13:23:55;4.20;;;2.10;;
70532;SDS011;58088;51.186;17.130;2023-07-02T13:26:22;4.40;;;2.40;;
70532;SDS011;58088;51.186;17.130;2023-07-02T13:28:49;4.30;;;2.60;;
70532;SDS011;58088;51.186;17.130;2023-07-02T13:31:17;4.50;;;1.80;;
70532;SDS011;58088;51.186;17.130;2023-07-02T13:33:43;6.80;;;2.10;;
70532;SDS011;58088;51.186;17.130;2023-07-02T13:36:12;7.00;;;2.10;;
70532;SDS011;58088;51.186;17.130;2023-07-02T13:38:39;3.60;;;1.80;;
70532;SDS011;58088;51.186;17.130;2023-07-02T13:41:06;4.60;;;2.30;;
70532;SDS011;58088;51.186;17.130;2023-07-02T13:43:33;3.50;;;1.80;;
70532;SDS011;58088;51.186;17.130;2023-07-02T13:46:00;3.40;;;1.60;;
70532;SDS011;58088;51.186;17.130;2023-07-02T13:48:28;3.70;;;1.50;;
70532;SDS011;58088;51.186;17.130;2023-07-02T13:50:55;3.10;;;1.80;;
70532;SDS011;58088;51.186;17.130;2023-07-02T13:53:22;3.70;;;2.00;;
70532;SDS011;58088;51.186;17.130;2023-07-02T13:55:49;3.00;;;1.60;;
70532;SDS011;58088;51.186;17.130;2023-07-02T13:58:16;4.70;;;2.00;;
70532;SDS011;58088;51.186;17.130;2023-07-02T14:00:43;3.70;;;1.80;;
70532;SDS011;58088;51.186;17.130;2023-07-02T14:03:09;3.50;;;1.80;;
70532;SDS011;58088;51.186;17.130;2023-07-02T14:05:36;4.70;;;2.10;;
70532;SDS011;58088;51.186;17.130;2023-07-02T14:08:03;2.80;;;1.60;;
70532;SDS011;58088;51.186;17.130;2023-07-02T14:10:30;3.80;;;1.90;;
70532;SDS011;58088;51.186;17.130;2023-07-02T14:12:57;3.70;;;2.40;;
70532;SDS011;58088;51.186;17.130;2023-07-02T14:15:25;3.50;;;1.70;;
70532;SDS011;58088;51.186;17.130;2023-07-02T14:17:53;5.20;;;2.20;;
70532;SDS011;58088;51.186;17.130;2023-07-02T14:20:20;3.70;;;2.20;;
70532;SDS011;58088;51.186;17.130;2023-07-02T14:22:47;5.70;;;1.80;;
70532;SDS011;58088;51.186;17.130;2023-07-02T14:25:13;4.60;;;1.80;;
70532;SDS011;58088;51.186;17.130;2023-07-02T14:27:40;6.30;;;1.90;;
70532;SDS011;58088;51.186;17.130;2023-07-02T14:30:13;4.00;;;1.60;;
70532;SDS011;58088;51.186;17.130;2023-07-02T14:32:40;3.80;;;1.60;;
70532;SDS011;58088;51.186;17.130;2023-07-02T14:35:07;4.90;;;1.70;;
70532;SDS011;58088;51.186;17.130;2023-07-02T14:37:34;5.30;;;1.70;;
70532;SDS011;58088;51.186;17.130;2023-07-02T14:40:01;3.60;;;2.10;;
70532;SDS011;58088;51.186;17.130;2023-07-02T14:42:28;4.90;;;2.40;;